Time;durP1;ratioP1;P1;durP2;ratioP2;P2;SDS_P1;SDS_P2;PMS_P1;PMS_P2;Temp;Humidity;BMP_temperature;BMP_pressure;BME280_temperature;BME280_humidity;BME280_pressure;Samples;Min_cycle;Max_cycle;Signal;HPM_P1;HPM_P2
2021/10/02 00:35:11;;;;;;;5.18;4.68;;;;;21.30;100195.00;;;;2095088;28;20692;-56
2021/10/02 00:36:31;;;;;;;5.53;4.60;;;;;21.40;100192.00;;;;2090957;28;20207;-56
2021/10/02 00:45:11;;;;;;;4.53;3.90;;;;;21.40;100196.00;;;;2086456;28;20213;-56
2021/10/02 00:46:13;;;;;;;5.10;4.60;;;;;21.40;100192.00;;;;2089989;28;20204;-56
2021/10/02 00:47:16;;;;;;;5.05;4.50;;;;;21.30;100195.00;;;;2094215;28;20290;-57
2021/10/02 00:48:16;;;;;;;5.00;4.50;;;;;21.30;100195.00;;;;2085751;28;20248;-56
2021/10/02 00:49:16;;;;;;;4.80;4.30;;;;;21.30;100191.00;;;;2078803;28;20221;-55
2021/10/02 00:50:17;;;;;;;4.67;4.20;;;;;21.30;100193.00;;;;2087459;28;20235;-55
2021/10/02 00:51:18;;;;;;;4.37;3.97;;;;;21.30;100193.00;;;;2093127;28;20243;-56
2021/10/02 00:52:19;;;;;;;5.45;4.50;;;;;21.30;100193.00;;;;2094210;28;20243;-54
2021/10/02 00:53:19;;;;;;;4.77;4.23;;;;;21.30;100188.00;;;;2087601;28;20212;-56
2021/10/02 00:54:19;;;;;;;4.73;4.23;;;;;21.30;100191.00;;;;2094717;28;20208;-56
2021/10/02 00:55:20;;;;;;;5.30;4.47;;;;;21.30;100191.00;;;;2093452;28;20212;-55
2021/10/02 00:56:21;;;;;;;4.90;4.30;;;;;21.30;100200.00;;;;2092172;28;20216;-55
2021/10/02 00:57:21;;;;;;;4.47;4.03;;;;;21.30;100193.00;;;;2095239;28;20301;-55
2021/10/02 00:58:21;;;;;;;4.17;3.77;;;;;21.40;100200.00;;;;2088614;28;20227;-55
2021/10/02 00:59:22;;;;;;;5.30;4.10;;;;;21.40;100194.00;;;;2088770;28;20250;-55
2021/10/02 01:00:23;;;;;;;4.20;3.80;;;;;21.30;100196.00;;;;2090726;28;20208;-55
2021/10/02 01:01:32;;;;;;;4.10;3.70;;;;;21.30;100192.00;;;;2087009;28;20301;-56
2021/10/02 01:02:43;;;;;;;5.13;3.88;;;;;21.30;100198.00;;;;2090900;28;20235;-56
2021/10/02 01:03:58;;;;;;;3.90;3.50;;;;;21.30;100204.00;;;;2086218;28;20240;-55
2021/10/02 01:05:46;;;;;;;4.15;3.75;;;;;21.30;100193.00;;;;2090145;28;20219;-55
2021/10/02 01:07:02;;;;;;;4.20;3.80;;;;;21.30;100198.00;;;;2075071;28;20302;-56
2021/10/02 01:08:19;;;;;;;5.00;4.05;;;;;21.30;100188.00;;;;2068644;28;20209;-55
2021/10/02 01:09:38;;;;;;;5.05;3.70;;;;;21.30;100199.00;;;;2060198;28;21257;-56
2021/10/02 01:11:03;;;;;;;4.25;3.60;;;;;21.20;100197.00;;;;2065905;28;20225;-56
2021/10/02 01:12:29;;;;;;;4.10;3.70;;;;;21.30;100185.00;;;;2072461;28;20215;-55
2021/10/02 01:13:37;;;;;;;4.00;3.28;;;;;21.30;100185.00;;;;2091725;28;20334;-55
2021/10/02 01:14:48;;;;;;;3.50;3.20;;;;;21.30;100185.00;;;;2090779;28;20341;-56
2021/10/02 01:16:15;;;;;;;4.57;3.17;;;;;21.30;100181.00;;;;2092206;28;20282;-56
2021/10/02 01:17:26;;;;;;;3.20;2.90;;;;;21.30;100182.00;;;;2086428;28;20315;-55
2021/10/02 01:18:42;;;;;;;3.40;3.10;;;;;21.20;100173.00;;;;2090906;28;20213;-55
2021/10/02 01:20:04;;;;;;;2.92;2.53;;;;;21.20;100172.00;;;;2074783;28;20220;-55
2021/10/02 01:21:08;;;;;;;3.35;2.97;;;;;21.20;100176.00;;;;2085533;28;20751;-55
2021/10/02 01:22:14;;;;;;;3.38;2.90;;;;;21.20;100178.00;;;;2090858;28;20217;-55
2021/10/02 01:23:27;;;;;;;3.35;3.05;;;;;21.20;100172.00;;;;2094748;28;20227;-56
2021/10/02 01:24:33;;;;;;;2.88;2.58;;;;;21.30;100174.00;;;;2089668;28;20766;-56
2021/10/02 01:25:52;;;;;;;3.33;3.00;;;;;21.20;100175.00;;;;2089846;28;20209;-56
2021/10/02 01:27:11;;;;;;;3.40;2.65;;;;;21.20;100177.00;;;;2086609;28;20266;-56
2021/10/02 01:28:14;;;;;;;3.35;3.05;;;;;21.20;100175.00;;;;2086302;28;20209;-55
2021/10/02 01:29:15;;;;;;;3.58;3.00;;;;;21.20;100178.00;;;;2087397;28;20758;-55
2021/10/02 01:30:23;;;;;;;3.10;2.67;;;;;21.20;100167.00;;;;2093855;28;20220;-56
2021/10/02 01:31:55;;;;;;;3.40;3.10;;;;;21.20;100173.00;;;;2094369;28;20211;-55
2021/10/02 01:33:00;;;;;;;3.05;2.75;;;;;21.20;100170.00;;;;2090240;28;20243;-56
2021/10/02 01:34:20;;;;;;;3.13;2.40;;;;;21.20;100165.00;;;;2089881;28;20279;-56
2021/10/02 01:35:30;;;;;;;3.15;2.85;;;;;21.20;100165.00;;;;2086103;28;20580;-55
2021/10/02 01:36:46;;;;;;;3.30;2.90;;;;;21.20;100164.00;;;;2069759;28;20237;-55
2021/10/02 01:47:13;;;;;;;2.50;2.30;;;;;21.20;100157.00;;;;2073106;28;20210;-56
2021/10/02 01:48:15;;;;;;;2.45;2.25;;;;;21.20;100161.00;;;;2073853;28;20710;-56
2021/10/02 01:49:15;;;;;;;2.85;2.20;;;;;21.20;100157.00;;;;2083572;28;20216;-55
2021/10/02 01:50:18;;;;;;;2.57;2.37;;;;;21.20;100157.00;;;;2083795;28;20854;-56
2021/10/02 01:51:18;;;;;;;2.72;2.47;;;;;21.20;100154.00;;;;2087786;28;20208;-56
2021/10/02 01:52:24;;;;;;;2.73;2.50;;;;;21.20;100145.00;;;;2083849;28;20258;-55
2021/10/02 01:53:29;;;;;;;2.47;1.90;;;;;21.20;100151.00;;;;2072963;28;20214;-55
2021/10/02 01:54:29;;;;;;;3.10;2.17;;;;;21.20;100153.00;;;;2084603;28;20296;-56
2021/10/02 01:55:31;;;;;;;2.10;1.90;;;;;21.20;100156.00;;;;2083706;28;20638;-55
2021/10/02 01:56:31;;;;;;;2.10;1.90;;;;;21.10;100157.00;;;;2080477;28;20220;-55
2021/10/02 01:57:35;;;;;;;2.20;2.00;;;;;21.10;100155.00;;;;2079312;28;20209;-55
2021/10/02 01:58:35;;;;;;;2.60;2.30;;;;;21.10;100123.00;;;;2071704;28;20503;-55
2021/10/02 01:59:36;;;;;;;2.27;2.07;;;;;21.10;100158.00;;;;2066593;28;20223;-55
2021/10/02 02:00:38;;;;;;;2.40;2.20;;;;;21.10;100157.00;;;;2071076;28;20232;-56
2021/10/02 02:01:43;;;;;;;3.08;2.10;;;;;21.10;100153.00;;;;2066733;28;20268;-55
2021/10/02 02:02:46;;;;;;;3.05;2.15;;;;;21.10;100152.00;;;;2082895;28;20232;-55
2021/10/02 02:03:47;;;;;;;2.45;2.25;;;;;21.10;100155.00;;;;2083231;28;20221;-55
2021/10/02 02:04:47;;;;;;;2.90;2.10;;;;;21.10;100149.00;;;;2069101;28;20214;-55
2021/10/02 02:05:48;;;;;;;2.20;1.67;;;;;21.10;100147.00;;;;2076124;28;21173;-55
2021/10/02 02:06:48;;;;;;;2.67;2.00;;;;;21.20;100148.00;;;;2074537;28;20280;-56
2021/10/02 02:07:52;;;;;;;2.20;2.00;;;;;21.20;100143.00;;;;2072809;28;20220;-54
2021/10/02 02:08:52;;;;;;;3.40;2.30;;;;;21.10;100151.00;;;;2078721;28;21268;-55
2021/10/02 02:09:54;;;;;;;2.60;2.03;;;;;21.10;100147.00;;;;2074941;28;20218;-56
2021/10/02 02:10:54;;;;;;;2.33;2.08;;;;;21.20;100157.00;;;;2074978;28;20258;-55
2021/10/02 02:11:56;;;;;;;2.47;2.03;;;;;21.20;100152.00;;;;2074764;28;20218;-55
2021/10/02 02:13:01;;;;;;;2.88;2.15;;;;;21.10;100151.00;;;;2076876;28;20627;-55
2021/10/02 02:14:02;;;;;;;1.70;1.60;;;;;21.20;100157.00;;;;2087143;28;20712;-55
2021/10/02 02:15:04;;;;;;;2.07;1.97;;;;;21.10;100154.00;;;;2083289;28;20212;-55
2021/10/02 02:16:05;;;;;;;2.70;1.80;;;;;21.10;100154.00;;;;2082749;28;20216;-56
2021/10/02 02:17:06;;;;;;;1.90;1.70;;;;;21.10;100151.00;;;;2070338;28;20226;-55
2021/10/02 02:18:15;;;;;;;1.90;1.70;;;;;21.10;100149.00;;;;2075455;28;20292;-55
2021/10/02 02:19:18;;;;;;;1.90;1.80;;;;;21.10;100148.00;;;;2081237;28;20496;-55
2021/10/02 02:20:22;;;;;;;3.45;1.73;;;;;21.10;100154.00;;;;2070877;28;20214;-55
2021/10/02 02:21:23;;;;;;;1.60;1.50;;;;;21.10;100147.00;;;;2065292;28;20274;-55
2021/10/02 02:22:23;;;;;;;2.10;1.90;;;;;21.10;100137.00;;;;2073242;28;20301;-55
2021/10/02 02:23:25;;;;;;;2.10;1.80;;;;;21.20;100142.00;;;;2083420;28;20265;-55
2021/10/02 02:24:26;;;;;;;2.60;1.75;;;;;21.20;100137.00;;;;2077250;28;20213;-55
2021/10/02 02:25:28;;;;;;;1.90;1.70;;;;;21.20;100137.00;;;;2073238;28;20230;-56
2021/10/02 02:26:29;;;;;;;1.75;1.52;;;;;21.20;100134.00;;;;2071440;28;20214;-55
2021/10/02 02:27:30;;;;;;;2.23;1.80;;;;;21.20;100141.00;;;;2075006;28;20214;-55
2021/10/02 02:28:31;;;;;;;2.10;1.90;;;;;21.20;100132.00;;;;2072978;28;20215;-56
2021/10/02 02:29:32;;;;;;;1.95;1.75;;;;;21.20;100127.00;;;;2078144;28;20309;-55
2021/10/02 02:30:33;;;;;;;1.87;1.70;;;;;21.00;100128.00;;;;2078650;28;20919;-56
2021/10/02 02:31:33;;;;;;;2.40;1.70;;;;;21.10;100129.00;;;;2075717;28;20506;-56
2021/10/02 02:32:34;;;;;;;2.03;1.83;;;;;21.20;100129.00;;;;2081877;28;20248;-56
2021/10/02 02:33:35;;;;;;;2.03;1.83;;;;;21.10;100125.00;;;;2083320;28;20721;-56
2021/10/02 02:34:35;;;;;;;1.77;1.67;;;;;21.10;100124.00;;;;2083565;28;20288;-56
2021/10/02 02:35:36;;;;;;;1.80;1.70;;;;;21.10;100129.00;;;;2079959;28;20324;-55
2021/10/02 02:36:37;;;;;;;2.30;1.77;;;;;21.20;100131.00;;;;2079307;28;20260;-55
2021/10/02 02:37:38;;;;;;;1.55;1.42;;;;;21.20;100129.00;;;;2087596;28;20716;-56
2021/10/02 02:38:38;;;;;;;2.10;1.90;;;;;21.10;100119.00;;;;2085952;28;20263;-55
2021/10/02 02:39:38;;;;;;;1.80;1.57;;;;;21.20;100125.00;;;;2084613;28;20232;-55
2021/10/02 02:40:39;;;;;;;2.40;1.70;;;;;21.10;100132.00;;;;2085025;28;20213;-55
2021/10/02 02:41:41;;;;;;;1.77;1.57;;;;;21.10;100126.00;;;;2084737;28;20644;-56
2021/10/02 02:42:42;;;;;;;2.00;1.70;;;;;21.10;100133.00;;;;2083121;28;20216;-56
2021/10/02 02:43:42;;;;;;;3.13;1.63;;;;;21.10;100128.00;;;;2079034;28;20311;-56
2021/10/02 02:44:43;;;;;;;1.90;1.73;;;;;21.10;100125.00;;;;2082737;28;20213;-56
2021/10/02 02:45:52;;;;;;;1.60;1.40;;;;;21.10;100117.00;;;;2079848;28;20209;-56
2021/10/02 02:46:56;;;;;;;1.45;1.35;;;;;21.10;100125.00;;;;2081418;28;20305;-55
2021/10/02 02:48:01;;;;;;;1.60;1.50;;;;;21.10;100133.00;;;;2074655;28;20213;-55
2021/10/02 02:49:14;;;;;;;1.65;1.55;;;;;21.10;100128.00;;;;2077576;28;20211;-56
2021/10/02 02:50:22;;;;;;;2.00;1.50;;;;;21.10;100128.00;;;;2073034;28;20210;-56
2021/10/02 02:51:28;;;;;;;1.52;1.40;;;;;21.10;100125.00;;;;2075384;28;20284;-56
2021/10/02 02:52:40;;;;;;;2.03;1.80;;;;;21.10;100117.00;;;;2076955;28;20212;-56
2021/10/02 02:53:48;;;;;;;1.85;1.73;;;;;21.10;100117.00;;;;2086395;28;20217;-56
2021/10/02 02:55:03;;;;;;;1.80;1.30;;;;;21.10;100130.00;;;;2082222;28;20216;-56
2021/10/02 02:56:10;;;;;;;1.55;1.45;;;;;21.10;100129.00;;;;2067124;28;20232;-55
2021/10/02 02:57:16;;;;;;;1.90;1.70;;;;;21.10;100129.00;;;;2070016;28;20210;-56
2021/10/02 02:58:18;;;;;;;2.20;1.75;;;;;21.10;100124.00;;;;2066277;28;20223;-56
2021/10/02 02:59:24;;;;;;;1.77;1.67;;;;;21.10;100124.00;;;;2073858;28;20221;-56
2021/10/02 03:00:25;;;;;;;2.72;1.85;;;;;21.10;100138.00;;;;2070568;28;20703;-56
2021/10/02 03:01:26;;;;;;;2.27;1.43;;;;;21.10;100141.00;;;;2069594;28;20217;-56
2021/10/02 03:02:26;;;;;;;1.67;1.40;;;;;21.10;100139.00;;;;2070315;28;20230;-56
2021/10/02 03:03:31;;;;;;;1.60;1.50;;;;;21.10;100145.00;;;;2076993;28;20268;-54
2021/10/02 03:04:32;;;;;;;2.05;1.60;;;;;21.10;100142.00;;;;2070735;28;20635;-55
2021/10/02 03:05:33;;;;;;;1.60;1.50;;;;;21.10;100150.00;;;;2057628;28;20230;-56
2021/10/02 03:06:33;;;;;;;1.50;1.40;;;;;21.10;100147.00;;;;2070007;28;20214;-55
2021/10/02 03:07:36;;;;;;;1.50;1.40;;;;;21.10;100150.00;;;;2070543;28;20240;-56
2021/10/02 03:08:44;;;;;;;2.42;1.80;;;;;21.10;100149.00;;;;2062169;28;20230;-56
2021/10/02 03:09:45;;;;;;;1.70;1.52;;;;;21.10;100146.00;;;;2075589;28;20222;-55
2021/10/02 03:10:47;;;;;;;1.83;1.35;;;;;21.10;100147.00;;;;2080438;28;20221;-55
2021/10/02 03:11:50;;;;;;;1.40;1.17;;;;;21.10;100147.00;;;;2078604;28;20213;-55
2021/10/02 03:12:52;;;;;;;2.80;1.80;;;;;21.10;100153.00;;;;2083237;28;20264;-55
2021/10/02 03:13:55;;;;;;;1.45;1.30;;;;;21.10;100145.00;;;;2082971;28;20221;-55
2021/10/02 03:14:56;;;;;;;1.30;1.10;;;;;21.10;100142.00;;;;2081000;28;20938;-55
2021/10/02 03:15:56;;;;;;;1.40;1.30;;;;;21.10;100137.00;;;;2080188;28;20229;-55
2021/10/02 03:16:56;;;;;;;1.37;1.27;;;;;21.10;100138.00;;;;2075414;28;20445;-56
2021/10/02 03:17:58;;;;;;;1.73;1.17;;;;;21.10;100139.00;;;;2084294;28;20216;-56
2021/10/02 03:19:01;;;;;;;1.13;1.02;;;;;21.00;100137.00;;;;2074229;28;20222;-56
2021/10/02 03:20:02;;;;;;;1.83;1.58;;;;;21.00;100133.00;;;;2077929;28;20210;-56
2021/10/02 03:21:03;;;;;;;2.05;1.63;;;;;21.10;100134.00;;;;2074766;28;20217;-56
2021/10/02 03:22:07;;;;;;;1.60;1.50;;;;;21.10;100134.00;;;;2080900;28;20297;-56
2021/10/02 03:23:07;;;;;;;1.60;1.20;;;;;21.10;100128.00;;;;2086455;28;20749;-56
2021/10/02 03:24:09;;;;;;;1.77;1.50;;;;;21.10;100126.00;;;;2087020;28;20205;-56
2021/10/02 03:25:10;;;;;;;1.73;1.50;;;;;21.10;100132.00;;;;2083040;28;20240;-55
2021/10/02 03:26:11;;;;;;;1.27;1.17;;;;;21.10;100129.00;;;;2082239;28;20225;-55
2021/10/02 03:27:11;;;;;;;1.20;1.10;;;;;21.00;100135.00;;;;2062590;28;20211;-56
2021/10/02 03:28:12;;;;;;;1.63;1.43;;;;;21.10;100135.00;;;;2054457;28;20219;-55
2021/10/02 03:29:13;;;;;;;2.43;1.80;;;;;21.10;100137.00;;;;2067594;28;20774;-56
2021/10/02 03:30:13;;;;;;;1.40;1.20;;;;;21.10;100138.00;;;;2083128;28;20290;-56
2021/10/02 03:31:14;;;;;;;1.23;1.10;;;;;21.10;100138.00;;;;2082133;28;20254;-56
2021/10/02 03:32:14;;;;;;;1.47;1.13;;;;;21.10;100136.00;;;;2078714;28;20690;-56
2021/10/02 03:33:15;;;;;;;1.80;1.50;;;;;21.10;100128.00;;;;2078742;28;20209;-56
2021/10/02 03:34:16;;;;;;;2.05;1.50;;;;;21.10;100129.00;;;;2074377;28;20202;-56
2021/10/02 03:35:17;;;;;;;1.30;1.13;;;;;21.10;100126.00;;;;2073794;28;20275;-56
2021/10/02 03:36:18;;;;;;;1.48;1.38;;;;;21.10;100122.00;;;;2074441;28;20206;-55
2021/10/02 03:37:19;;;;;;;1.75;1.42;;;;;21.10;100128.00;;;;2084618;28;20205;-54
2021/10/02 03:38:19;;;;;;;2.57;1.30;;;;;21.10;100122.00;;;;2086955;28;20626;-56
2021/10/02 03:39:21;;;;;;;1.88;1.67;;;;;21.10;100120.00;;;;2085026;28;20209;-56
2021/10/02 03:40:21;;;;;;;1.97;1.37;;;;;21.00;100115.00;;;;2083045;28;20652;-55
2021/10/02 03:41:22;;;;;;;1.97;1.53;;;;;21.00;100114.00;;;;2079627;28;20457;-56
2021/10/02 03:42:22;;;;;;;1.60;1.50;;;;;21.00;100113.00;;;;2085857;28;20288;-56
2021/10/02 03:43:23;;;;;;;1.50;1.30;;;;;21.00;100106.00;;;;2079964;28;20718;-55
2021/10/02 03:44:24;;;;;;;1.57;1.37;;;;;21.10;100101.00;;;;2087656;28;20229;-54
2021/10/02 03:45:27;;;;;;;1.60;1.23;;;;;21.10;100111.00;;;;2080988;28;20221;-55
2021/10/02 03:46:28;;;;;;;1.30;1.15;;;;;21.10;100105.00;;;;2086020;28;20205;-56
2021/10/02 03:47:29;;;;;;;1.70;1.33;;;;;21.10;100107.00;;;;2075897;28;20438;-55
2021/10/02 03:48:30;;;;;;;1.63;1.40;;;;;21.10;100109.00;;;;2082592;28;20270;-55
2021/10/02 03:49:30;;;;;;;1.43;1.03;;;;;21.00;100116.00;;;;2082450;28;20459;-55
2021/10/02 03:50:32;;;;;;;1.90;1.50;;;;;21.00;100108.00;;;;2084381;28;20213;-55
2021/10/02 03:51:32;;;;;;;1.25;1.15;;;;;21.00;100112.00;;;;2081381;28;20264;-55
2021/10/02 03:52:32;;;;;;;1.20;1.10;;;;;21.10;100107.00;;;;2085442;28;20678;-55
2021/10/02 03:53:33;;;;;;;2.07;1.30;;;;;21.10;100102.00;;;;2084523;28;20709;-55
2021/10/02 03:54:33;;;;;;;1.40;1.30;;;;;21.10;100113.00;;;;2083050;28;20585;-55
2021/10/02 03:55:34;;;;;;;4.20;1.30;;;;;21.00;100111.00;;;;2082887;28;20228;-56
2021/10/02 03:56:34;;;;;;;1.23;1.13;;;;;21.00;100100.00;;;;2087266;28;20566;-56
2021/10/02 03:57:35;;;;;;;2.07;1.27;;;;;21.00;100100.00;;;;2079054;28;20228;-56
2021/10/02 03:58:37;;;;;;;2.10;1.20;;;;;21.00;100098.00;;;;2083061;28;20464;-55
2021/10/02 03:59:37;;;;;;;2.35;1.58;;;;;21.10;100096.00;;;;2078096;28;20271;-56
2021/10/02 04:00:38;;;;;;;1.63;1.13;;;;;21.00;100098.00;;;;2080714;28;20686;-55
2021/10/02 04:01:38;;;;;;;1.43;1.33;;;;;21.00;100098.00;;;;2084646;28;20218;-56
2021/10/02 04:02:38;;;;;;;1.33;1.07;;;;;21.00;100092.00;;;;2082703;28;20730;-56
2021/10/02 04:03:40;;;;;;;1.00;0.90;;;;;21.00;100096.00;;;;2086729;28;20286;-55
2021/10/02 04:04:41;;;;;;;2.00;1.35;;;;;21.00;100098.00;;;;2082515;28;20709;-57
2021/10/02 04:05:41;;;;;;;1.63;1.40;;;;;21.00;100101.00;;;;2082831;28;20248;-55
2021/10/02 04:06:41;;;;;;;1.27;1.17;;;;;21.00;100104.00;;;;2086039;28;20213;-55
2021/10/02 04:07:42;;;;;;;1.60;1.10;;;;;21.00;100102.00;;;;2086454;28;20217;-56
2021/10/02 04:08:42;;;;;;;1.43;1.20;;;;;20.90;100100.00;;;;2086928;28;20205;-55
2021/10/02 04:09:43;;;;;;;1.30;1.20;;;;;21.00;100109.00;;;;2084577;28;20221;-55
2021/10/02 04:10:43;;;;;;;1.10;0.93;;;;;21.00;100099.00;;;;2079131;28;20213;-55
2021/10/02 04:11:44;;;;;;;1.90;1.27;;;;;21.00;100099.00;;;;2078073;28;20292;-55
2021/10/02 04:12:45;;;;;;;1.37;1.10;;;;;21.00;100098.00;;;;2087010;28;20242;-56
2021/10/02 04:13:45;;;;;;;1.48;1.30;;;;;21.00;100100.00;;;;2087195;28;20451;-56
2021/10/02 04:14:48;;;;;;;2.23;1.00;;;;;21.00;100111.00;;;;2082833;28;20221;-55
2021/10/02 04:15:49;;;;;;;1.45;1.33;;;;;21.00;100105.00;;;;2084831;28;20236;-56
2021/10/02 04:16:49;;;;;;;1.33;1.13;;;;;21.00;100104.00;;;;2081276;28;20228;-55
2021/10/02 04:17:50;;;;;;;1.17;1.07;;;;;21.00;100111.00;;;;2078949;28;20217;-55
2021/10/02 04:18:50;;;;;;;2.07;1.00;;;;;21.00;100111.00;;;;2081534;28;20217;-54
2021/10/02 04:19:50;;;;;;;1.57;1.20;;;;;21.00;100104.00;;;;2082521;28;20673;-55
2021/10/02 04:20:51;;;;;;;1.30;0.90;;;;;21.00;100106.00;;;;2082636;28;20828;-55
2021/10/02 04:21:51;;;;;;;3.07;1.40;;;;;21.00;100103.00;;;;2087366;28;20704;-56
2021/10/02 04:22:52;;;;;;;2.13;1.13;;;;;21.00;100106.00;;;;2086984;28;20604;-55
2021/10/02 04:23:52;;;;;;;1.60;1.20;;;;;21.00;100115.00;;;;2078552;28;20217;-56
2021/10/02 04:24:52;;;;;;;1.20;1.10;;;;;21.00;100112.00;;;;2084831;28;20217;-55
2021/10/02 04:25:53;;;;;;;1.20;0.90;;;;;21.00;100118.00;;;;2080982;28;20233;-55
2021/10/02 04:26:55;;;;;;;2.10;1.33;;;;;21.00;100116.00;;;;2081760;28;20313;-55
2021/10/02 04:27:55;;;;;;;1.80;1.33;;;;;21.00;100125.00;;;;2078874;28;20221;-56
2021/10/02 04:28:56;;;;;;;1.40;1.20;;;;;21.00;100124.00;;;;2082094;28;20221;-55
2021/10/02 04:29:56;;;;;;;1.93;1.13;;;;;21.00;100126.00;;;;2086934;28;20213;-55
2021/10/02 04:30:57;;;;;;;1.20;1.00;;;;;21.00;100110.00;;;;2082258;28;20292;-56
2021/10/02 04:31:57;;;;;;;1.10;1.00;;;;;21.00;100118.00;;;;2078973;28;20222;-55
2021/10/02 04:32:57;;;;;;;1.30;1.20;;;;;21.00;100121.00;;;;2084837;28;20235;-55
2021/10/02 04:33:58;;;;;;;1.43;1.30;;;;;21.00;100119.00;;;;2081039;28;20221;-55
2021/10/02 04:34:58;;;;;;;1.23;1.00;;;;;21.00;100116.00;;;;2078962;28;20213;-56
2021/10/02 04:35:59;;;;;;;1.17;1.07;;;;;21.00;100117.00;;;;2082663;28;20275;-55
2021/10/02 04:37:00;;;;;;;1.30;1.20;;;;;21.00;100115.00;;;;2082257;28;20205;-55
2021/10/02 04:38:01;;;;;;;1.33;0.95;;;;;21.00;100115.00;;;;2087049;28;20697;-55
2021/10/02 04:39:01;;;;;;;1.40;0.90;;;;;21.00;100111.00;;;;2085508;28;20208;-56
2021/10/02 04:40:02;;;;;;;1.83;1.23;;;;;21.00;100108.00;;;;2082177;28;20217;-56
2021/10/02 04:41:02;;;;;;;1.33;1.17;;;;;21.00;100110.00;;;;2081283;28;20255;-56
2021/10/02 04:42:04;;;;;;;1.43;1.07;;;;;21.00;100112.00;;;;2078388;28;20332;-56
2021/10/02 04:43:05;;;;;;;4.05;1.17;;;;;21.00;100109.00;;;;2081542;28;20777;-56
2021/10/02 04:44:05;;;;;;;2.27;1.30;;;;;21.00;100109.00;;;;2085875;28;20216;-55
2021/10/02 04:45:07;;;;;;;1.23;1.10;;;;;21.00;100108.00;;;;2079091;28;20452;-55
2021/10/02 04:46:09;;;;;;;1.30;1.20;;;;;21.00;100109.00;;;;2079002;28;20217;-55
2021/10/02 04:47:10;;;;;;;1.60;1.10;;;;;21.00;100109.00;;;;2084911;28;20219;-55
2021/10/02 04:48:11;;;;;;;1.33;1.23;;;;;21.00;100113.00;;;;2077953;28;20578;-55
2021/10/02 04:49:11;;;;;;;1.87;1.30;;;;;21.00;100103.00;;;;2070221;28;20232;-55
2021/10/02 04:50:12;;;;;;;1.30;1.20;;;;;21.00;100108.00;;;;2085819;28;20304;-55
2021/10/02 04:51:12;;;;;;;1.30;1.20;;;;;21.00;100110.00;;;;2086757;28;20669;-55
2021/10/02 04:52:13;;;;;;;1.37;1.27;;;;;21.00;100102.00;;;;2073327;28;20307;-55
2021/10/02 04:53:13;;;;;;;1.17;0.80;;;;;21.00;100111.00;;;;2089954;28;20790;-55
2021/10/02 04:54:13;;;;;;;1.63;1.23;;;;;21.00;100113.00;;;;2083589;28;20225;-55
2021/10/02 04:55:14;;;;;;;1.00;0.80;;;;;21.00;100110.00;;;;2078294;28;20252;-56
2021/10/02 04:56:16;;;;;;;1.27;1.17;;;;;21.00;100115.00;;;;2083011;28;20274;-56
2021/10/02 04:57:17;;;;;;;1.75;1.10;;;;;21.00;100114.00;;;;2082832;28;20221;-55
2021/10/02 04:58:17;;;;;;;1.40;1.17;;;;;21.00;100117.00;;;;2078626;28;20221;-55
2021/10/02 04:59:17;;;;;;;2.40;1.30;;;;;21.00;100115.00;;;;2081255;28;20316;-55
2021/10/02 05:00:20;;;;;;;1.30;1.20;;;;;21.00;100111.00;;;;2078953;28;20288;-55
2021/10/02 05:01:21;;;;;;;4.22;1.30;;;;;21.00;100112.00;;;;2078304;28;20499;-55
2021/10/02 05:02:21;;;;;;;3.37;1.00;;;;;21.00;100116.00;;;;2081670;28;20525;-55
2021/10/02 05:03:22;;;;;;;1.47;1.20;;;;;21.00;100127.00;;;;2081461;28;20229;-55
2021/10/02 05:04:22;;;;;;;1.93;1.23;;;;;21.00;100126.00;;;;2085702;28;20219;-55
2021/10/02 05:05:22;;;;;;;1.30;1.10;;;;;21.00;100130.00;;;;2084616;28;20296;-56
2021/10/02 05:06:23;;;;;;;1.70;1.17;;;;;21.00;100122.00;;;;2085629;28;20244;-54
2021/10/02 05:07:23;;;;;;;1.40;1.30;;;;;21.00;100119.00;;;;2086968;28;20299;-55
2021/10/02 05:08:24;;;;;;;1.80;1.20;;;;;21.00;100127.00;;;;2083752;28;20217;-56
2021/10/02 05:09:25;;;;;;;1.87;1.17;;;;;21.00;100121.00;;;;2082889;28;20297;-55
2021/10/02 05:10:25;;;;;;;1.07;0.97;;;;;21.00;100121.00;;;;2087891;28;20292;-55
2021/10/02 05:11:26;;;;;;;1.97;1.20;;;;;21.00;100117.00;;;;2084697;28;20467;-55
2021/10/02 05:12:27;;;;;;;1.67;1.20;;;;;21.00;100110.00;;;;2085225;28;20413;-55
2021/10/02 05:13:28;;;;;;;1.30;1.00;;;;;21.00;100114.00;;;;2080072;28;20487;-56
2021/10/02 05:14:29;;;;;;;1.80;1.20;;;;;21.00;100112.00;;;;2086633;28;20248;-54
2021/10/02 05:15:29;;;;;;;1.73;1.15;;;;;21.00;100116.00;;;;2080644;28;20455;-55
2021/10/02 05:16:30;;;;;;;2.00;1.33;;;;;21.00;100115.00;;;;2083709;28;20228;-55
2021/10/02 05:17:30;;;;;;;2.80;0.87;;;;;21.00;100106.00;;;;2087941;28;20216;-55
2021/10/02 05:18:30;;;;;;;1.30;1.20;;;;;21.00;100117.00;;;;2080539;28;20627;-55
2021/10/02 05:19:32;;;;;;;2.07;1.37;;;;;21.00;100115.00;;;;2086235;28;20627;-56
2021/10/02 05:20:32;;;;;;;1.63;1.00;;;;;21.00;100123.00;;;;2076434;28;20213;-55
2021/10/02 05:21:32;;;;;;;1.70;1.40;;;;;20.90;100116.00;;;;2079064;28;20214;-55
2021/10/02 05:22:33;;;;;;;1.87;1.00;;;;;21.00;100126.00;;;;2082553;28;20213;-55
2021/10/02 05:23:33;;;;;;;1.00;0.90;;;;;21.00;100113.00;;;;2081202;28;20217;-55
2021/10/02 05:24:37;;;;;;;1.03;0.80;;;;;21.00;100108.00;;;;2078665;28;20670;-55
2021/10/02 05:25:38;;;;;;;1.20;1.10;;;;;21.00;100119.00;;;;2071135;28;20705;-54
2021/10/02 05:26:38;;;;;;;1.13;1.03;;;;;21.00;100117.00;;;;2072127;28;20211;-55
2021/10/02 05:27:39;;;;;;;1.27;1.17;;;;;21.00;100112.00;;;;2088062;28;20611;-56
2021/10/02 05:28:39;;;;;;;1.40;1.30;;;;;20.90;100112.00;;;;2087915;28;20220;-56
2021/10/02 05:29:40;;;;;;;1.10;0.90;;;;;20.90;100111.00;;;;2083180;28;20222;-55
2021/10/02 05:30:40;;;;;;;0.98;0.88;;;;;20.90;100113.00;;;;2084343;28;20235;-54
2021/10/02 05:31:41;;;;;;;1.90;1.17;;;;;20.90;100114.00;;;;2088066;28;20209;-55
2021/10/02 05:32:42;;;;;;;1.20;1.10;;;;;20.90;100108.00;;;;2082704;28;20697;-55
2021/10/02 05:33:42;;;;;;;1.53;1.23;;;;;21.00;100109.00;;;;2079489;28;20229;-55
2021/10/02 05:34:43;;;;;;;1.30;1.20;;;;;20.90;100101.00;;;;2080229;28;21745;-55
2021/10/02 05:35:45;;;;;;;1.20;1.10;;;;;21.00;100107.00;;;;2084224;28;20253;-54
2021/10/02 05:36:45;;;;;;;1.80;1.20;;;;;20.90;100101.00;;;;2086062;28;20208;-55
2021/10/02 05:37:46;;;;;;;1.30;1.07;;;;;20.90;100112.00;;;;2081261;28;20235;-55
2021/10/02 05:38:47;;;;;;;2.05;1.10;;;;;20.90;100103.00;;;;2083020;28;20539;-55
2021/10/02 05:39:47;;;;;;;1.40;1.30;;;;;20.90;100111.00;;;;2081809;28;20225;-56
2021/10/02 05:40:48;;;;;;;2.20;1.20;;;;;20.90;100099.00;;;;2082569;28;20214;-56
2021/10/02 05:41:49;;;;;;;1.20;1.10;;;;;20.90;100097.00;;;;2083192;28;20216;-54
2021/10/02 05:42:49;;;;;;;1.20;0.83;;;;;20.90;100101.00;;;;2083724;28;20247;-55
2021/10/02 05:43:50;;;;;;;1.50;1.40;;;;;21.00;100095.00;;;;2083279;28;20228;-55
2021/10/02 05:44:51;;;;;;;1.80;1.60;;;;;20.90;100102.00;;;;2087366;28;20213;-55
2021/10/02 05:45:51;;;;;;;1.00;0.90;;;;;21.00;100099.00;;;;2080128;28;20220;-55
2021/10/02 05:46:52;;;;;;;1.73;1.20;;;;;20.90;100096.00;;;;2080888;28;20456;-55
2021/10/02 05:47:52;;;;;;;2.90;1.53;;;;;20.90;100100.00;;;;2081456;28;20214;-54
2021/10/02 05:48:53;;;;;;;1.77;1.13;;;;;21.00;100095.00;;;;2086222;28;20220;-55
2021/10/02 05:49:53;;;;;;;1.47;1.30;;;;;20.90;100098.00;;;;2078655;28;20213;-54
2021/10/02 05:50:53;;;;;;;2.03;1.20;;;;;20.90;100091.00;;;;2080063;28;20213;-54
2021/10/02 05:51:54;;;;;;;1.47;1.10;;;;;20.80;100098.00;;;;2084181;28;20217;-54
2021/10/02 05:52:54;;;;;;;1.00;0.90;;;;;21.00;100100.00;;;;2080072;28;20319;-55
2021/10/02 05:53:55;;;;;;;2.27;1.37;;;;;21.00;100091.00;;;;2083967;28;21015;-54
2021/10/02 05:54:55;;;;;;;1.30;1.00;;;;;21.00;100084.00;;;;2086627;28;20308;-55
2021/10/02 05:55:56;;;;;;;1.17;1.03;;;;;21.00;100085.00;;;;2087978;28;20221;-55
2021/10/02 05:56:58;;;;;;;1.00;0.83;;;;;20.90;100085.00;;;;2087638;28;20216;-55
2021/10/02 05:57:58;;;;;;;1.40;1.15;;;;;20.90;100084.00;;;;2083218;28;20517;-56
2021/10/02 05:58:59;;;;;;;1.20;1.10;;;;;20.90;100086.00;;;;2083344;28;20209;-55
2021/10/02 05:59:59;;;;;;;1.10;1.00;;;;;20.90;100092.00;;;;2086712;28;20213;-55
2021/10/02 06:00:59;;;;;;;1.40;1.30;;;;;20.90;100092.00;;;;2082002;28;20232;-55
2021/10/02 06:02:01;;;;;;;1.70;1.40;;;;;20.90;100094.00;;;;2084438;28;20220;-54